createdAt,value
2022-10-26T00:01:36.522Z,6.68
2022-10-26T00:04:05.468Z,14.97
2022-10-26T00:06:33.997Z,9.27
2022-10-26T00:09:02.539Z,8.50
2022-10-26T00:11:31.975Z,8.05
2022-10-26T00:14:00.413Z,9.18
2022-10-26T00:16:30.899Z,7.07
2022-10-26T00:18:59.342Z,7.68
2022-10-26T00:21:27.743Z,9.65
2022-10-26T00:23:55.779Z,8.70
2022-10-26T00:26:24.156Z,7.43
2022-10-26T00:28:57.085Z,9.43
2022-10-26T00:31:25.892Z,6.78
2022-10-26T00:33:54.904Z,7.57
2022-10-26T00:36:23.638Z,9.02
2022-10-26T00:38:52.819Z,8.15
2022-10-26T00:41:23.803Z,7.97
2022-10-26T00:43:52.299Z,12.30
2022-10-26T00:46:24.712Z,6.82
2022-10-26T00:48:56.213Z,6.63
2022-10-26T00:51:30.230Z,7.90
2022-10-26T00:53:58.622Z,8.50
2022-10-26T00:56:26.735Z,9.68
2022-10-26T00:58:55.226Z,6.07
2022-10-26T01:01:24.681Z,6.78
2022-10-26T01:03:53.443Z,10.50
2022-10-26T01:06:22.697Z,8.73
2022-10-26T01:08:51.741Z,10.80
2022-10-26T01:11:20.223Z,10.68
2022-10-26T01:13:51.780Z,7.03
2022-10-26T01:16:42.810Z,8.50
2022-10-26T01:19:49.902Z,7.47
2022-10-26T01:22:21.612Z,8.98
2022-10-26T01:25:04.637Z,8.70
2022-10-26T01:27:36.526Z,9.02
2022-10-26T01:30:33.159Z,7.30
2022-10-26T01:33:17.430Z,10.00
2022-10-26T01:35:54.606Z,9.45
2022-10-26T01:38:30.834Z,8.70
2022-10-26T01:41:04.988Z,7.53
2022-10-26T01:43:37.681Z,7.30
2022-10-26T01:46:08.888Z,7.50
2022-10-26T01:48:38.215Z,6.85
2022-10-26T01:51:08.463Z,6.68
2022-10-26T01:53:36.794Z,8.60
2022-10-26T01:56:05.226Z,6.25
2022-10-26T01:59:14.765Z,7.20
2022-10-26T02:02:09.899Z,7.80
2022-10-26T02:04:48.071Z,7.10
2022-10-26T02:07:24.385Z,8.60
2022-10-26T02:10:00.703Z,7.07
2022-10-26T02:12:39.322Z,6.67
2022-10-26T02:15:12.285Z,9.23
2022-10-26T02:17:50.014Z,7.97
2022-10-26T02:20:23.110Z,6.68
2022-10-26T02:22:52.927Z,7.45
2022-10-26T02:25:25.014Z,7.27
2022-10-26T02:27:56.780Z,6.50
2022-10-26T02:30:25.007Z,9.00
2022-10-26T02:32:57.519Z,10.68
2022-10-26T02:35:30.004Z,9.77
2022-10-26T02:38:02.486Z,6.67
2022-10-26T02:40:31.172Z,6.43
2022-10-26T02:43:02.469Z,5.90
2022-10-26T02:45:35.865Z,7.82
2022-10-26T02:48:05.953Z,8.05
2022-10-26T02:50:39.342Z,8.27
2022-10-26T02:53:14.563Z,7.75
2022-10-26T02:55:49.375Z,8.73
2022-10-26T02:58:22.069Z,8.38
2022-10-26T03:00:51.601Z,8.90
2022-10-26T03:03:21.912Z,10.80
2022-10-26T03:05:50.309Z,7.72
2022-10-26T03:08:18.787Z,7.15
2022-10-26T03:10:47.599Z,8.05
2022-10-26T03:13:16.147Z,7.25
2022-10-26T03:15:44.515Z,8.83
2022-10-26T03:18:12.616Z,6.82
2022-10-26T03:20:45.198Z,8.43
2022-10-26T03:23:13.694Z,8.52
2022-10-26T03:25:42.135Z,9.95
2022-10-26T03:28:10.824Z,8.40
2022-10-26T03:30:39.406Z,8.48
2022-10-26T03:33:07.890Z,8.40
2022-10-26T03:35:38.941Z,7.03
2022-10-26T03:38:08.431Z,6.53
2022-10-26T03:40:37.016Z,8.13
2022-10-26T03:43:05.148Z,7.57
2022-10-26T03:45:33.245Z,8.18
2022-10-26T03:48:01.317Z,7.93
2022-10-26T03:50:29.713Z,7.28
2022-10-26T03:52:58.079Z,8.97
2022-10-26T03:55:28.910Z,7.38
2022-10-26T03:57:56.977Z,8.27
2022-10-26T04:00:25.382Z,12.23
2022-10-26T04:02:56.534Z,9.50
2022-10-26T04:05:25.344Z,8.80
2022-10-26T04:07:54.374Z,8.48
2022-10-26T04:10:23.169Z,6.53
2022-10-26T04:12:52.713Z,6.93
2022-10-26T04:15:21.817Z,6.55
2022-10-26T04:17:50.297Z,8.33
2022-10-26T04:20:19.003Z,7.47
2022-10-26T04:22:47.452Z,8.30
2022-10-26T04:25:15.881Z,11.07
2022-10-26T04:27:44.337Z,8.40
2022-10-26T04:30:14.795Z,6.57
2022-10-26T04:32:43.185Z,7.13
2022-10-26T04:35:14.628Z,7.20
2022-10-26T04:37:43.708Z,8.80
2022-10-26T04:40:12.379Z,8.93
2022-10-26T04:42:44.468Z,9.47
2022-10-26T04:45:15.102Z,9.40
2022-10-26T04:47:43.763Z,8.20
2022-10-26T04:50:13.975Z,9.20
2022-10-26T04:52:42.675Z,6.03
2022-10-26T04:55:10.960Z,10.83
2022-10-26T04:57:48.661Z,7.43
2022-10-26T05:00:18.687Z,8.82
2022-10-26T05:02:47.065Z,9.38
2022-10-26T05:05:21.865Z,10.57
2022-10-26T05:07:55.289Z,8.33
2022-10-26T05:10:23.770Z,9.70
2022-10-26T05:12:52.966Z,6.68
2022-10-26T05:15:22.864Z,10.68
2022-10-26T05:17:57.362Z,8.63
2022-10-26T05:20:29.670Z,8.77
2022-10-26T05:22:58.486Z,11.00
2022-10-26T05:25:27.165Z,7.88
2022-10-26T05:27:59.368Z,8.25
2022-10-26T05:30:29.712Z,9.52
2022-10-26T05:33:03.109Z,12.27
2022-10-26T05:35:35.903Z,7.97
2022-10-26T05:38:08.498Z,7.43
2022-10-26T05:40:36.975Z,7.93
2022-10-26T05:43:05.558Z,9.18
2022-10-26T05:45:35.069Z,7.07
2022-10-26T05:48:03.504Z,9.00
2022-10-26T05:50:32.073Z,7.00
2022-10-26T05:53:00.450Z,8.85
2022-10-26T05:55:29.230Z,7.60
2022-10-26T05:57:57.838Z,8.23
2022-10-26T06:00:28.369Z,9.05
2022-10-26T06:03:14.409Z,7.43
2022-10-26T06:05:57.657Z,12.73
2022-10-26T06:08:27.379Z,7.63
2022-10-26T06:10:56.836Z,9.80
2022-10-26T06:13:37.496Z,9.35
2022-10-26T06:16:23.227Z,11.00
2022-10-26T06:19:02.141Z,11.25
2022-10-26T06:21:47.187Z,5.82
2022-10-26T06:24:23.278Z,6.00
2022-10-26T06:27:01.414Z,7.60
2022-10-26T06:29:43.076Z,11.77
2022-10-26T06:32:12.779Z,8.00
2022-10-26T06:34:46.896Z,8.48
2022-10-26T06:37:15.755Z,5.47
2022-10-26T06:39:49.996Z,10.95
2022-10-26T06:42:24.207Z,9.27
2022-10-26T06:44:52.873Z,5.97
2022-10-26T06:47:27.152Z,5.93
2022-10-26T06:50:09.040Z,5.43
2022-10-26T06:52:41.358Z,5.88
2022-10-26T06:55:15.314Z,6.63
2022-10-26T06:57:45.111Z,5.88
2022-10-26T07:00:19.871Z,6.90
2022-10-26T07:02:49.175Z,5.13
2022-10-26T07:05:18.995Z,9.13
2022-10-26T07:07:48.775Z,6.18
2022-10-26T07:10:17.563Z,6.63
2022-10-26T07:12:46.019Z,7.45
2022-10-26T07:15:14.539Z,7.57
2022-10-26T07:17:46.228Z,7.40
2022-10-26T07:20:15.151Z,25.05
2022-10-26T07:22:44.593Z,10.43
2022-10-26T07:25:13.387Z,6.13
2022-10-26T07:27:41.850Z,7.60
2022-10-26T07:30:11.192Z,5.65
2022-10-26T07:32:39.717Z,6.50
2022-10-26T07:35:08.453Z,6.03
2022-10-26T07:37:37.598Z,6.50
2022-10-26T07:40:11.160Z,9.77
2022-10-26T07:42:41.987Z,6.25
2022-10-26T07:45:13.077Z,6.32
2022-10-26T07:47:41.494Z,6.57
2022-10-26T07:50:12.084Z,11.38
2022-10-26T07:52:41.798Z,6.00
2022-10-26T07:55:13.263Z,5.07
2022-10-26T07:57:41.715Z,7.40
2022-10-26T08:00:11.797Z,5.63
2022-10-26T08:02:40.329Z,7.60
2022-10-26T08:05:09.380Z,7.00
2022-10-26T08:07:42.725Z,5.10
2022-10-26T08:10:13.374Z,5.22
2022-10-26T08:12:42.072Z,6.03
2022-10-26T08:15:13.322Z,7.28
2022-10-26T08:17:41.973Z,6.03
2022-10-26T08:20:11.552Z,4.20
2022-10-26T08:22:50.183Z,5.18
2022-10-26T08:25:24.584Z,5.97
2022-10-26T08:27:53.104Z,7.90
2022-10-26T08:30:23.025Z,9.33
2022-10-26T08:32:52.211Z,7.60
2022-10-26T08:35:21.069Z,7.78
2022-10-26T08:37:51.554Z,5.53
2022-10-26T08:40:23.841Z,5.40
2022-10-26T08:42:55.942Z,12.23
2022-10-26T08:45:36.618Z,5.20
2022-10-26T08:48:12.238Z,6.15
2022-10-26T08:50:46.865Z,7.60
2022-10-26T08:53:22.009Z,6.57
2022-10-26T08:55:55.834Z,7.10
2022-10-26T08:58:28.579Z,9.02
2022-10-26T09:00:57.159Z,9.00
2022-10-26T09:03:26.246Z,7.15
2022-10-26T09:06:07.198Z,7.20
2022-10-26T09:08:40.651Z,6.33
2022-10-26T09:11:18.781Z,9.05
2022-10-26T09:13:59.801Z,7.70
2022-10-26T09:16:33.364Z,7.07
2022-10-26T09:19:41.536Z,5.45
2022-10-26T09:22:19.934Z,6.10
2022-10-26T09:24:53.767Z,10.18
2022-10-26T09:27:52.378Z,9.07
2022-10-26T09:30:24.609Z,9.05
2022-10-26T09:32:56.662Z,5.43
2022-10-26T09:38:00.605Z,5.93
2022-10-26T09:40:36.459Z,8.00
2022-10-26T09:43:11.976Z,6.13
2022-10-26T09:45:43.255Z,7.72
2022-10-26T09:48:15.320Z,5.80
2022-10-26T09:50:48.272Z,6.72
2022-10-26T09:53:16.809Z,6.25
2022-10-26T09:55:48.087Z,6.78
2022-10-26T09:58:25.293Z,7.85
2022-10-26T10:00:54.186Z,4.90
2022-10-26T10:03:26.674Z,10.32
2022-10-26T10:05:55.550Z,8.38
2022-10-26T10:08:25.186Z,5.97
2022-10-26T10:11:12.597Z,7.72
2022-10-26T10:13:45.877Z,4.93
2022-10-26T10:16:21.027Z,10.32
2022-10-26T10:18:55.744Z,13.23
2022-10-26T10:21:35.999Z,4.60
2022-10-26T10:24:04.396Z,5.78
2022-10-26T10:26:33.089Z,6.63
2022-10-26T10:29:03.811Z,9.20
2022-10-26T10:31:34.137Z,8.18
2022-10-26T10:34:02.809Z,6.65
2022-10-26T10:36:32.360Z,5.43
2022-10-26T10:39:01.726Z,7.67
2022-10-26T10:41:36.468Z,7.03
2022-10-26T10:44:09.645Z,10.07
2022-10-26T10:46:38.909Z,7.28
2022-10-26T10:49:17.611Z,5.07
2022-10-26T10:51:51.277Z,5.50
2022-10-26T10:54:26.028Z,4.50
2022-10-26T10:56:56.631Z,7.97
2022-10-26T10:59:46.222Z,7.25
2022-10-26T11:02:37.190Z,8.68
2022-10-26T11:05:26.231Z,8.67
2022-10-26T11:08:03.328Z,5.75
2022-10-26T11:10:36.896Z,8.07
2022-10-26T11:13:11.893Z,7.63
2022-10-26T11:15:45.344Z,7.50
2022-10-26T11:18:16.650Z,7.60
2022-10-26T11:20:52.989Z,10.70
2022-10-26T11:23:29.442Z,6.50
2022-10-26T11:26:04.436Z,14.73
2022-10-26T11:28:40.698Z,6.63
2022-10-26T11:31:16.781Z,6.60
2022-10-26T11:33:49.063Z,8.95
2022-10-26T11:36:22.068Z,7.65
2022-10-26T11:38:57.472Z,7.00
2022-10-26T11:41:30.674Z,7.85
2022-10-26T11:44:07.025Z,8.23
2022-10-26T11:46:40.924Z,9.13
2022-10-26T11:49:16.728Z,6.30
2022-10-26T11:51:51.860Z,8.07
2022-10-26T11:54:27.011Z,6.43
2022-10-26T11:56:58.116Z,9.27
2022-10-26T11:59:33.363Z,6.55
2022-10-26T12:02:07.571Z,8.52
2022-10-26T12:04:38.875Z,6.53
2022-10-26T12:07:18.018Z,8.43
2022-10-26T12:09:49.223Z,7.30
2022-10-26T12:12:25.050Z,5.55
2022-10-26T12:15:02.338Z,7.28
2022-10-26T12:17:51.154Z,7.70
2022-10-26T12:21:02.610Z,6.55
2022-10-26T12:23:40.992Z,5.97
2022-10-26T12:26:54.183Z,8.88
2022-10-26T12:29:47.064Z,8.73
2022-10-26T12:32:49.868Z,4.70
2022-10-26T12:35:37.478Z,7.25
2022-10-26T12:38:31.724Z,8.40
2022-10-26T12:41:24.409Z,9.48
2022-10-26T12:44:07.669Z,6.60
2022-10-26T12:46:42.558Z,7.95
2022-10-26T12:49:47.928Z,9.50
2022-10-26T12:52:51.278Z,9.73
2022-10-26T12:55:53.999Z,12.90
2022-10-26T12:58:42.925Z,8.57
2022-10-26T13:01:29.341Z,5.85
2022-10-26T13:04:10.224Z,8.25
2022-10-26T13:06:49.676Z,10.00
2022-10-26T13:09:23.034Z,8.52
2022-10-26T13:11:54.481Z,6.55
2022-10-26T13:14:25.284Z,7.30
2022-10-26T13:16:54.148Z,6.82
2022-10-26T13:19:27.238Z,8.57
2022-10-26T13:21:59.053Z,7.93
2022-10-26T13:24:30.925Z,7.53
2022-10-26T13:27:26.382Z,10.25
2022-10-26T13:30:20.329Z,6.35
2022-10-26T13:32:53.905Z,7.43
2022-10-26T13:35:25.015Z,7.82
2022-10-26T13:37:55.423Z,9.55
2022-10-26T13:40:27.000Z,8.68
2022-10-26T13:42:57.920Z,10.20
2022-10-26T13:45:29.283Z,7.40
2022-10-26T13:48:02.920Z,7.07
2022-10-26T13:51:14.491Z,8.52
2022-10-26T13:53:51.122Z,9.90
2022-10-26T13:56:28.925Z,7.32
2022-10-26T13:59:03.156Z,8.03
2022-10-26T14:01:38.372Z,9.75
2022-10-26T14:04:19.863Z,9.32
2022-10-26T14:06:52.471Z,12.75
2022-10-26T14:09:24.451Z,9.55
2022-10-26T14:11:59.412Z,11.47
2022-10-26T14:14:55.320Z,9.13
2022-10-26T14:17:45.973Z,7.03
2022-10-26T14:20:55.337Z,9.77
2022-10-26T14:23:39.192Z,12.55
2022-10-26T14:26:09.785Z,10.23
2022-10-26T14:28:51.988Z,10.20
2022-10-26T14:31:27.781Z,7.65
2022-10-26T14:33:59.263Z,7.43
2022-10-26T14:36:31.453Z,7.60
2022-10-26T14:39:02.924Z,10.13
2022-10-26T14:41:33.115Z,8.88
2022-10-26T14:44:04.380Z,7.43
2022-10-26T14:46:36.926Z,17.50
2022-10-26T14:49:08.327Z,9.88
2022-10-26T14:51:38.289Z,7.80
2022-10-26T14:54:07.005Z,9.60
2022-10-26T14:56:41.801Z,9.55
2022-10-26T14:59:23.247Z,8.90
2022-10-26T15:01:55.203Z,7.45
2022-10-26T15:04:34.865Z,10.47
2022-10-26T15:07:18.104Z,9.25
2022-10-26T15:09:47.772Z,6.15
2022-10-26T15:12:33.381Z,8.85
2022-10-26T15:17:53.585Z,11.53
2022-10-26T15:20:24.619Z,14.77
2022-10-26T15:22:59.363Z,9.98
2022-10-26T15:25:29.347Z,10.02
2022-10-26T15:28:13.325Z,8.25
2022-10-26T15:31:01.267Z,16.93
2022-10-26T15:33:30.429Z,12.90
2022-10-26T15:36:15.225Z,11.07
2022-10-26T15:38:48.290Z,11.23
2022-10-26T15:41:20.763Z,11.60
2022-10-26T15:44:01.586Z,7.10
2022-10-26T15:46:51.244Z,10.95
2022-10-26T15:49:26.146Z,8.60
2022-10-26T15:51:56.429Z,9.35
2022-10-26T15:54:25.356Z,9.07
2022-10-26T15:57:00.235Z,8.77
2022-10-26T15:59:33.339Z,9.95
2022-10-26T16:02:03.740Z,10.05
2022-10-26T16:04:33.417Z,13.48
2022-10-26T16:07:06.195Z,9.95
2022-10-26T16:09:38.312Z,9.20
2022-10-26T16:12:09.944Z,12.35
2022-10-26T16:15:03.988Z,8.38
2022-10-26T16:17:31.462Z,9.02
2022-10-26T16:20:00.153Z,13.50
2022-10-26T16:22:28.609Z,13.70
2022-10-26T16:24:56.872Z,11.00
2022-10-26T16:27:25.484Z,9.25
2022-10-26T16:29:54.057Z,10.18
2022-10-26T16:32:22.788Z,11.35
2022-10-26T16:34:52.991Z,9.60
2022-10-26T16:37:22.112Z,9.07
2022-10-26T16:39:51.154Z,9.88
2022-10-26T16:42:20.277Z,14.20
2022-10-26T16:44:52.025Z,11.15
2022-10-26T16:49:49.712Z,12.93
2022-10-26T16:52:19.936Z,9.65
2022-10-26T16:54:50.136Z,15.45
2022-10-26T16:57:19.439Z,10.73
2022-10-26T16:59:48.742Z,8.93
2022-10-26T17:02:17.673Z,13.75
2022-10-26T17:04:47.174Z,9.15
2022-10-26T17:07:16.115Z,11.60
2022-10-26T17:09:46.475Z,11.15
2022-10-26T17:12:15.292Z,11.47
2022-10-26T17:14:45.996Z,7.78
2022-10-26T17:17:14.668Z,11.20
2022-10-26T17:19:43.688Z,9.35
2022-10-26T17:22:12.679Z,17.55
2022-10-26T17:24:41.358Z,12.30
2022-10-26T17:27:12.172Z,13.45
2022-10-26T17:29:41.194Z,9.13
2022-10-26T17:32:10.469Z,11.77
2022-10-26T17:34:41.444Z,10.35
2022-10-26T17:37:11.325Z,17.30
2022-10-26T17:39:39.724Z,15.13
2022-10-26T17:42:12.107Z,10.63
2022-10-26T17:44:40.664Z,14.30
2022-10-26T17:47:11.955Z,13.10
2022-10-26T17:49:42.307Z,14.37
2022-10-26T17:52:11.581Z,10.85
2022-10-26T17:54:39.742Z,13.75
2022-10-26T17:57:07.760Z,14.20
2022-10-26T17:59:37.277Z,20.60
2022-10-26T18:02:05.689Z,13.83
2022-10-26T18:04:34.335Z,13.75
2022-10-26T18:07:02.685Z,15.02
2022-10-26T18:09:31.063Z,14.82
2022-10-26T18:11:59.420Z,20.27
2022-10-26T18:14:30.281Z,13.03
2022-10-26T18:16:59.603Z,15.35
2022-10-26T18:19:28.237Z,11.18
2022-10-26T18:21:56.617Z,14.98
2022-10-26T18:24:29.058Z,11.93
2022-10-26T18:26:58.440Z,13.07
2022-10-26T18:29:27.297Z,10.93
2022-10-26T18:31:56.920Z,10.73
2022-10-26T18:34:26.403Z,10.02
2022-10-26T18:36:54.880Z,16.10
2022-10-26T18:39:23.490Z,17.67
2022-10-26T18:41:54.876Z,15.52
2022-10-26T18:44:23.329Z,13.38
2022-10-26T18:46:52.923Z,21.10
2022-10-26T18:49:21.495Z,14.95
2022-10-26T18:51:51.221Z,12.20
2022-10-26T18:54:19.286Z,13.85
2022-10-26T18:56:47.755Z,15.10
2022-10-26T18:59:18.797Z,12.63
2022-10-26T19:01:47.540Z,16.83
2022-10-26T19:04:18.901Z,17.00
2022-10-26T19:06:48.958Z,12.57
2022-10-26T19:09:21.422Z,15.90
2022-10-26T19:11:49.697Z,14.27
2022-10-26T19:14:18.046Z,18.25
2022-10-26T19:16:48.059Z,15.50
2022-10-26T19:19:17.249Z,15.90
2022-10-26T19:21:49.586Z,12.40
2022-10-26T19:24:19.286Z,12.43
2022-10-26T19:26:51.356Z,15.70
2022-10-26T19:29:20.052Z,15.07
2022-10-26T19:31:55.515Z,19.20
2022-10-26T19:34:23.914Z,21.02
2022-10-26T19:37:01.050Z,13.02
2022-10-26T19:39:30.657Z,19.00
2022-10-26T19:41:59.982Z,20.53
2022-10-26T19:44:28.334Z,15.18
2022-10-26T19:46:56.608Z,14.43
2022-10-26T19:49:24.831Z,15.77
2022-10-26T19:51:53.186Z,16.45
2022-10-26T19:54:21.329Z,12.30
2022-10-26T19:56:49.814Z,11.27
2022-10-26T19:59:22.348Z,15.02
2022-10-26T20:01:50.811Z,13.43
2022-10-26T20:04:19.319Z,14.60
2022-10-26T20:06:47.726Z,12.33
2022-10-26T20:11:46.565Z,29.05
2022-10-26T20:14:14.821Z,45.22
2022-10-26T20:16:44.266Z,25.27
2022-10-26T20:19:12.816Z,21.20
2022-10-26T20:21:40.934Z,19.67
2022-10-26T20:24:10.314Z,24.85
2022-10-26T20:26:40.061Z,36.35
2022-10-26T20:29:08.351Z,30.33
2022-10-26T20:31:39.192Z,17.10
2022-10-26T20:34:08.634Z,27.10
2022-10-26T20:36:36.968Z,61.72
2022-10-26T20:39:06.087Z,37.13
2022-10-26T20:41:41.582Z,20.85
2022-10-26T20:44:25.080Z,23.37
2022-10-26T20:46:54.327Z,29.17
2022-10-26T20:49:26.729Z,55.50
2022-10-26T20:52:20.099Z,91.03
2022-10-26T20:54:55.255Z,23.13
2022-10-26T20:57:29.568Z,34.97
2022-10-26T21:00:03.706Z,16.60
2022-10-26T21:02:32.425Z,33.13
2022-10-26T21:05:01.837Z,25.02
2022-10-26T21:07:32.457Z,14.35
2022-10-26T21:10:00.792Z,20.13
2022-10-26T21:12:28.851Z,45.60
2022-10-26T21:14:56.865Z,33.10
2022-10-26T21:17:25.362Z,39.00
2022-10-26T21:19:53.719Z,92.82
2022-10-26T21:22:23.251Z,61.57
2022-10-26T21:24:51.236Z,24.60
2022-10-26T21:27:19.260Z,19.83
2022-10-26T21:29:47.663Z,13.05
2022-10-26T21:32:15.727Z,15.40
2022-10-26T21:34:43.858Z,13.40
2022-10-26T21:37:12.345Z,10.93
2022-10-26T21:39:41.810Z,14.52
2022-10-26T21:42:10.512Z,10.32
2022-10-26T21:44:41.384Z,18.00
2022-10-26T21:47:10.397Z,14.93
2022-10-26T21:49:38.580Z,12.77
2022-10-26T21:52:07.557Z,15.90
2022-10-26T21:54:35.629Z,15.55
2022-10-26T21:57:05.268Z,15.50
2022-10-26T21:59:33.669Z,14.83
2022-10-26T22:02:02.232Z,13.68
2022-10-26T22:04:30.891Z,16.38
2022-10-26T22:06:58.972Z,12.35
2022-10-26T22:09:27.700Z,15.15
2022-10-26T22:11:56.673Z,12.87
2022-10-26T22:14:27.021Z,17.27
2022-10-26T22:16:55.841Z,14.95
2022-10-26T22:19:24.887Z,17.85
2022-10-26T22:21:53.911Z,15.35
2022-10-26T22:24:22.943Z,13.10
2022-10-26T22:26:51.781Z,14.80
2022-10-26T22:29:20.680Z,13.27
2022-10-26T22:31:50.855Z,15.02
2022-10-26T22:34:19.800Z,12.75
2022-10-26T22:36:48.897Z,21.07
2022-10-26T22:39:18.196Z,14.88
2022-10-26T22:41:47.208Z,10.50
2022-10-26T22:44:16.496Z,12.30
2022-10-26T22:46:45.846Z,15.23
2022-10-26T22:49:16.340Z,13.97
2022-10-26T22:51:45.288Z,14.30
2022-10-26T22:54:15.002Z,15.85
2022-10-26T22:56:43.636Z,16.80
2022-10-26T22:59:12.402Z,18.08
2022-10-26T23:01:42.043Z,15.23
2022-10-26T23:04:13.574Z,15.57
2022-10-26T23:06:43.785Z,11.90
2022-10-26T23:09:12.848Z,13.13
2022-10-26T23:11:42.892Z,16.73
2022-10-26T23:14:11.857Z,14.97
2022-10-26T23:16:40.885Z,13.32
2022-10-26T23:19:10.636Z,16.67
2022-10-26T23:21:39.671Z,11.90
2022-10-26T23:24:10.169Z,13.90
2022-10-26T23:26:39.378Z,16.00
2022-10-26T23:29:08.352Z,17.55
2022-10-26T23:31:36.968Z,11.38
2022-10-26T23:34:05.954Z,15.18
2022-10-26T23:36:35.875Z,15.57
2022-10-26T23:39:04.960Z,13.53
2022-10-26T23:41:35.354Z,11.70
2022-10-26T23:44:04.248Z,15.73
2022-10-26T23:46:33.317Z,14.30
2022-10-26T23:49:02.714Z,15.68
2022-10-26T23:51:31.534Z,16.70
2022-10-26T23:54:00.566Z,13.93
2022-10-26T23:56:29.746Z,12.80
2022-10-26T23:59:01.299Z,10.20
